sensor_id;sensor_type;location;lat;lon;timestamp;pressure;altitude;pressure_sealevel;temperature;humidity
48352;BME280;34163;49.314;6.752;2023-06-10T05:22:19;99321.97;;;7.12;100.00
48352;BME280;34163;49.314;6.752;2023-06-10T05:24:44;99328.94;;;7.13;100.00
48352;BME280;34163;49.314;6.752;2023-06-10T05:27:10;99322.72;;;7.16;100.00
48352;BME280;34163;49.314;6.752;2023-06-10T05:29:35;99328.63;;;7.22;100.00
48352;BME280;34163;49.314;6.752;2023-06-10T05:32:00;99329.56;;;7.21;100.00
48352;BME280;34163;49.314;6.752;2023-06-10T05:34:28;99330.41;;;7.22;100.00
48352;BME280;34163;49.314;6.752;2023-06-10T05:36:53;99334.00;;;7.19;100.00
48352;BME280;34163;49.314;6.752;2023-06-10T05:39:19;99339.16;;;7.22;100.00
48352;BME280;34163;49.314;6.752;2023-06-10T05:41:44;99341.75;;;7.24;100.00
48352;BME280;34163;49.314;6.752;2023-06-10T05:44:09;99336.56;;;7.21;100.00
48352;BME280;34163;49.314;6.752;2023-06-10T05:46:34;99333.72;;;7.27;100.00
48352;BME280;34163;49.314;6.752;2023-06-10T05:49:00;99340.84;;;7.25;100.00
48352;BME280;34163;49.314;6.752;2023-06-10T05:51:25;99339.94;;;7.26;100.00
48352;BME280;34163;49.314;6.752;2023-06-10T05:53:50;99342.84;;;7.18;100.00
48352;BME280;34163;49.314;6.752;2023-06-10T05:56:16;99335.94;;;7.14;100.00
48352;BME280;34163;49.314;6.752;2023-06-10T05:58:41;99343.09;;;7.11;100.00
48352;BME280;34163;49.314;6.752;2023-06-10T06:01:06;99344.84;;;7.12;100.00
48352;BME280;34163;49.314;6.752;2023-06-10T06:03:31;99344.84;;;7.12;100.00
48352;BME280;34163;49.314;6.752;2023-06-10T06:05:57;99340.56;;;7.07;100.00
48352;BME280;34163;49.314;6.752;2023-06-10T06:08:22;99348.47;;;7.07;100.00
48352;BME280;34163;49.314;6.752;2023-06-10T06:10:47;99348.53;;;7.06;100.00
48352;BME280;34163;49.314;6.752;2023-06-10T06:13:15;99345.06;;;7.05;100.00
48352;BME280;34163;49.314;6.752;2023-06-10T06:15:40;99347.78;;;7.02;100.00
48352;BME280;34163;49.314;6.752;2023-06-10T06:18:06;99346.91;;;7.02;100.00
48352;BME280;34163;49.314;6.752;2023-06-10T06:20:31;99349.59;;;7.00;100.00
48352;BME280;34163;49.314;6.752;2023-06-10T06:22:56;99353.13;;;7.01;100.00
48352;BME280;34163;49.314;6.752;2023-06-10T06:25:21;99346.06;;;7.01;100.00
48352;BME280;34163;49.314;6.752;2023-06-10T06:27:48;99344.22;;;7.03;100.00
48352;BME280;34163;49.314;6.752;2023-06-10T06:30:13;99351.31;;;7.01;100.00
48352;BME280;34163;49.314;6.752;2023-06-10T06:32:38;99356.50;;;7.04;100.00
48352;BME280;34163;49.314;6.752;2023-06-10T06:35:04;99352.13;;;7.03;100.00
48352;BME280;34163;49.314;6.752;2023-06-10T06:37:30;99348.59;;;7.04;100.00
48352;BME280;34163;49.314;6.752;2023-06-10T06:39:57;99348.69;;;7.01;100.00
48352;BME280;34163;49.314;6.752;2023-06-10T06:42:22;99351.22;;;7.04;100.00
48352;BME280;34163;49.314;6.752;2023-06-10T06:44:48;99360.81;;;7.07;100.00
48352;BME280;34163;49.314;6.752;2023-06-10T06:47:13;99365.97;;;7.10;100.00
48352;BME280;34163;49.314;6.752;2023-06-10T06:49:39;99357.34;;;7.05;100.00
48352;BME280;34163;49.314;6.752;2023-06-10T06:52:04;99363.50;;;7.05;100.00
48352;BME280;34163;49.314;6.752;2023-06-10T06:54:30;99359.94;;;7.06;100.00
48352;BME280;34163;49.314;6.752;2023-06-10T06:56:55;99368.75;;;7.05;100.00
48352;BME280;34163;49.314;6.752;2023-06-10T06:59:20;99358.22;;;7.05;100.00
48352;BME280;34163;49.314;6.752;2023-06-10T07:01:46;99359.13;;;7.04;100.00
48352;BME280;34163;49.314;6.752;2023-06-10T07:04:11;99354.66;;;7.06;100.00
48352;BME280;34163;49.314;6.752;2023-06-10T07:06:36;99359.94;;;7.06;100.00
48352;BME280;34163;49.314;6.752;2023-06-10T07:09:03;99358.00;;;7.12;100.00
48352;BME280;34163;49.314;6.752;2023-06-10T07:11:28;99359.81;;;7.09;100.00
48352;BME280;34163;49.314;6.752;2023-06-10T07:13:53;99362.41;;;7.11;100.00
48352;BME280;34163;49.314;6.752;2023-06-10T07:16:18;99357.03;;;7.14;100.00
48352;BME280;34163;49.314;6.752;2023-06-10T07:38:14;99365.72;;;7.16;100.00
48352;BME280;34163;49.314;6.752;2023-06-10T07:40:39;99363.28;;;7.12;100.00
48352;BME280;34163;49.314;6.752;2023-06-10T07:43:04;99362.28;;;7.14;100.00
48352;BME280;34163;49.314;6.752;2023-06-10T07:45:30;99364.13;;;7.12;100.00
48352;BME280;34163;49.314;6.752;2023-06-10T07:47:55;99356.28;;;7.11;100.00
48352;BME280;34163;49.314;6.752;2023-06-10T07:50:20;99361.44;;;7.14;100.00
48352;BME280;34163;49.314;6.752;2023-06-10T07:52:46;99354.34;;;7.16;100.00
48352;BME280;34163;49.314;6.752;2023-06-10T07:55:11;99364.06;;;7.14;100.00
48352;BME280;34163;49.314;6.752;2023-06-10T07:57:36;99364.13;;;7.12;100.00
48352;BME280;34163;49.314;6.752;2023-06-10T08:00:03;99358.00;;;7.12;100.00
48352;BME280;34163;49.314;6.752;2023-06-10T08:02:29;99364.03;;;7.15;100.00
48352;BME280;34163;49.314;6.752;2023-06-10T08:04:54;99356.00;;;7.18;100.00
48352;BME280;34163;49.314;6.752;2023-06-10T08:07:20;99360.50;;;7.15;100.00
48352;BME280;34163;49.314;6.752;2023-06-10T08:09:45;99369.34;;;7.14;100.00
48352;BME280;34163;49.314;6.752;2023-06-10T08:12:10;99367.41;;;7.19;100.00
48352;BME280;34163;49.314;6.752;2023-06-10T08:14:36;99368.31;;;7.18;100.00
48352;BME280;34163;49.314;6.752;2023-06-10T08:17:02;99368.31;;;7.18;100.00
48352;BME280;34163;49.314;6.752;2023-06-10T08:19:28;99367.41;;;7.19;100.00
48352;BME280;34163;49.314;6.752;2023-06-10T08:21:53;99360.41;;;7.18;100.00
48352;BME280;34163;49.314;6.752;2023-06-10T08:24:18;99358.59;;;7.20;100.00
48352;BME280;34163;49.314;6.752;2023-06-10T08:26:44;99366.56;;;7.18;100.00
48352;BME280;34163;49.314;6.752;2023-06-10T08:29:11;99361.22;;;7.20;100.00
48352;BME280;34163;49.314;6.752;2023-06-10T08:31:36;99362.13;;;7.19;100.00
48352;BME280;34163;49.314;6.752;2023-06-10T08:34:01;99354.22;;;7.19;100.00
48352;BME280;34163;49.314;6.752;2023-06-10T08:36:27;99348.84;;;7.22;100.00
48352;BME280;34163;49.314;6.752;2023-06-10T08:38:52;99353.53;;;7.14;100.00
48352;BME280;34163;49.314;6.752;2023-06-10T08:41:17;99342.84;;;7.18;100.00
48352;BME280;34163;49.314;6.752;2023-06-10T08:43:50;99341.97;;;7.18;100.00
48352;BME280;34163;49.314;6.752;2023-06-10T08:46:19;99356.13;;;7.15;100.00
48352;BME280;34163;49.314;6.752;2023-06-10T08:48:44;99345.38;;;7.21;100.00
48352;BME280;34163;49.314;6.752;2023-06-10T08:51:13;99357.66;;;7.21;100.00
48352;BME280;34163;49.314;6.752;2023-06-10T08:53:45;99354.13;;;7.22;100.00
48352;BME280;34163;49.314;6.752;2023-06-10T08:56:13;99353.44;;;7.17;100.00
48352;BME280;34163;49.314;6.752;2023-06-10T08:58:38;99343.63;;;7.20;100.00
48352;BME280;34163;49.314;6.752;2023-06-10T09:01:07;99348.91;;;7.20;100.00
48352;BME280;34163;49.314;6.752;2023-06-10T09:03:32;99348.97;;;7.19;100.00
48352;BME280;34163;49.314;6.752;2023-06-10T09:05:58;99346.22;;;7.22;100.00
48352;BME280;34163;49.314;6.752;2023-06-10T09:08:24;99350.56;;;7.23;100.00
48352;BME280;34163;49.314;6.752;2023-06-10T09:10:49;99343.41;;;7.26;100.00
48352;BME280;34163;49.314;6.752;2023-06-10T09:13:14;99349.69;;;7.22;100.00
48352;BME280;34163;49.314;6.752;2023-06-10T09:15:43;99340.03;;;7.23;100.00
48352;BME280;34163;49.314;6.752;2023-06-10T09:18:09;99348.75;;;7.25;100.00
48352;BME280;34163;49.314;6.752;2023-06-10T09:20:35;99345.88;;;7.31;100.00
48352;BME280;34163;49.314;6.752;2023-06-10T09:23:00;99346.91;;;7.27;100.00
48352;BME280;34163;49.314;6.752;2023-06-10T09:25:34;99347.59;;;7.32;100.00
48352;BME280;34163;49.314;6.752;2023-06-10T09:28:02;99349.53;;;7.27;100.00
48352;BME280;34163;49.314;6.752;2023-06-10T09:30:32;99340.72;;;7.28;100.00
48352;BME280;34163;49.314;6.752;2023-06-10T09:32:58;99348.63;;;7.28;100.00
48352;BME280;34163;49.314;6.752;2023-06-10T09:35:25;99349.22;;;7.36;100.00
48352;BME280;34163;49.314;6.752;2023-06-10T09:37:54;99345.00;;;7.31;100.00
48352;BME280;34163;49.314;6.752;2023-06-10T09:40:20;99350.22;;;7.32;100.00
48352;BME280;34163;49.314;6.752;2023-06-10T09:42:45;99346.00;;;7.28;100.00
48352;BME280;34163;49.314;6.752;2023-06-10T09:45:14;99349.44;;;7.30;100.00
48352;BME280;34163;49.314;6.752;2023-06-10T09:47:39;99339.94;;;7.26;100.00
48352;BME280;34163;49.314;6.752;2023-06-10T09:50:04;99339.09;;;7.24;100.00
48352;BME280;34163;49.314;6.752;2023-06-10T09:52:30;99336.34;;;7.27;100.00
48352;BME280;34163;49.314;6.752;2023-06-10T09:54:59;99339.69;;;7.32;100.00
48352;BME280;34163;49.314;6.752;2023-06-10T09:57:25;99340.56;;;7.33;100.00
48352;BME280;34163;49.314;6.752;2023-06-10T09:59:53;99339.78;;;7.29;100.00
48352;BME280;34163;49.314;6.752;2023-06-10T10:02:19;99340.72;;;7.28;100.00
48352;BME280;34163;49.314;6.752;2023-06-10T10:04:45;99337.88;;;7.34;100.00
48352;BME280;34163;49.314;6.752;2023-06-10T10:07:10;99337.00;;;7.34;100.00
48352;BME280;34163;49.314;6.752;2023-06-10T10:09:36;99337.88;;;7.34;100.00
48352;BME280;34163;49.314;6.752;2023-06-10T10:12:02;99339.94;;;7.26;100.00
48352;BME280;34163;49.314;6.752;2023-06-10T10:14:32;99325.66;;;7.32;100.00
48352;BME280;34163;49.314;6.752;2023-06-10T10:16:57;99332.03;;;7.26;100.00
48352;BME280;34163;49.314;6.752;2023-06-10T10:19:25;99323.19;;;7.27;100.00
48352;BME280;34163;49.314;6.752;2023-06-10T10:21:53;99332.03;;;7.26;100.00
48352;BME280;34163;49.314;6.752;2023-06-10T10:24:23;99330.03;;;7.33;100.00
48352;BME280;34163;49.314;6.752;2023-06-10T10:26:51;99328.81;;;7.41;100.00
48352;BME280;34163;49.314;6.752;2023-06-10T10:29:22;99325.25;;;7.42;100.00
48352;BME280;34163;49.314;6.752;2023-06-10T10:31:51;99322.78;;;7.38;100.00
48352;BME280;34163;49.314;6.752;2023-06-10T10:34:24;99331.81;;;7.31;100.00
48352;BME280;34163;49.314;6.752;2023-06-10T10:36:51;99333.28;;;7.39;100.00
48352;BME280;34163;49.314;6.752;2023-06-10T10:39:18;99328.91;;;7.38;100.00
48352;BME280;34163;49.314;6.752;2023-06-10T10:41:44;99318.66;;;7.31;100.00
48352;BME280;34163;49.314;6.752;2023-06-10T10:44:13;99317.69;;;7.33;100.00
48352;BME280;34163;49.314;6.752;2023-06-10T10:46:42;99319.47;;;7.33;100.00
48352;BME280;34163;49.314;6.752;2023-06-10T10:49:08;99313.09;;;7.38;100.00
48352;BME280;34163;49.314;6.752;2023-06-10T10:51:34;99311.50;;;7.34;100.00
48352;BME280;34163;49.314;6.752;2023-06-10T10:54:09;99304.28;;;7.39;100.00
48352;BME280;34163;49.314;6.752;2023-06-10T10:56:34;99294.03;;;7.32;100.00
48352;BME280;34163;49.314;6.752;2023-06-10T10:59:06;99302.78;;;7.32;100.00
48352;BME280;34163;49.314;6.752;2023-06-10T11:01:43;99296.50;;;7.36;100.00
48352;BME280;34163;49.314;6.752;2023-06-10T11:04:11;99302.50;;;7.40;100.00
48352;BME280;34163;49.314;6.752;2023-06-10T11:06:36;99310.34;;;7.41;100.00
48352;BME280;34163;49.314;6.752;2023-06-10T11:09:02;99299.06;;;7.38;100.00
48352;BME280;34163;49.314;6.752;2023-06-10T11:11:50;99296.53;;;7.35;100.00
48352;BME280;34163;49.314;6.752;2023-06-10T11:14:36;99296.66;;;7.32;100.00
48352;BME280;34163;49.314;6.752;2023-06-10T11:17:01;99298.34;;;7.34;100.00
48352;BME280;34163;49.314;6.752;2023-06-10T11:19:43;99293.97;;;7.33;100.00
48352;BME280;34163;49.314;6.752;2023-06-10T11:22:15;99298.38;;;7.33;100.00
48352;BME280;34163;49.314;6.752;2023-06-10T11:24:41;99294.81;;;7.34;100.00
48352;BME280;34163;49.314;6.752;2023-06-10T11:27:24;99299.13;;;7.36;100.00
48352;BME280;34163;49.314;6.752;2023-06-10T11:29:57;99295.69;;;7.34;100.00
48352;BME280;34163;49.314;6.752;2023-06-10T11:32:23;99300.16;;;7.32;100.00
48352;BME280;34163;49.314;6.752;2023-06-10T11:34:53;99295.81;;;7.31;100.00
48352;BME280;34163;49.314;6.752;2023-06-10T11:37:18;99296.66;;;7.32;100.00
48352;BME280;34163;49.314;6.752;2023-06-10T11:39:44;99286.06;;;7.33;100.00
48352;BME280;34163;49.314;6.752;2023-06-10T11:42:09;99295.69;;;7.34;100.00
48352;BME280;34163;49.314;6.752;2023-06-10T11:44:35;99298.38;;;7.33;100.00
48352;BME280;34163;49.314;6.752;2023-06-10T11:47:02;99300.09;;;7.34;100.00
48352;BME280;34163;49.314;6.752;2023-06-10T11:49:28;99297.50;;;7.32;100.00
48352;BME280;34163;49.314;6.752;2023-06-10T11:51:53;99296.25;;;7.42;100.00
48352;BME280;34163;49.314;6.752;2023-06-10T11:54:18;99296.38;;;7.39;100.00
48352;BME280;34163;49.314;6.752;2023-06-10T11:56:44;99292.84;;;7.40;100.00
48352;BME280;34163;49.314;6.752;2023-06-10T11:59:09;99278.88;;;7.37;100.00
48352;BME280;34163;49.314;6.752;2023-06-10T12:01:35;99283.38;;;7.35;100.00
48352;BME280;34163;49.314;6.752;2023-06-10T12:04:05;99284.97;;;7.39;100.00
48352;BME280;34163;49.314;6.752;2023-06-10T12:07:04;99290.44;;;7.34;100.00
48352;BME280;34163;49.314;6.752;2023-06-10T12:09:24;99279.81;;;7.36;100.00
48352;BME280;34163;49.314;6.752;2023-06-10T12:11:54;99287.78;;;7.34;100.00
48352;BME280;34163;49.314;6.752;2023-06-10T12:17:03;99269.28;;;7.36;100.00
48352;BME280;34163;49.314;6.752;2023-06-10T12:19:29;99273.69;;;7.35;100.00
48352;BME280;34163;49.314;6.752;2023-06-10T12:21:54;99271.03;;;7.35;100.00
48352;BME280;34163;49.314;6.752;2023-06-10T12:24:20;99273.56;;;7.38;100.00
48352;BME280;34163;49.314;6.752;2023-06-10T12:26:45;99263.13;;;7.35;100.00
48352;BME280;34163;49.314;6.752;2023-06-10T12:29:20;99261.38;;;7.36;100.00
48352;BME280;34163;49.314;6.752;2023-06-10T12:34:18;99259.66;;;7.35;100.00
48352;BME280;34163;49.314;6.752;2023-06-10T12:36:49;99262.91;;;7.41;100.00
48352;BME280;34163;49.314;6.752;2023-06-10T12:39:15;99255.00;;;7.41;100.00
48352;BME280;34163;49.314;6.752;2023-06-10T12:41:40;99262.00;;;7.42;100.00
48352;BME280;34163;49.314;6.752;2023-06-10T12:44:05;99256.97;;;7.36;100.00
48352;BME280;34163;49.314;6.752;2023-06-10T12:46:37;99270.06;;;7.38;100.00
48352;BME280;34163;49.314;6.752;2023-06-10T12:49:02;99259.72;;;7.33;100.00
48352;BME280;34163;49.314;6.752;2023-06-10T12:51:27;99265.66;;;7.38;100.00
48352;BME280;34163;49.314;6.752;2023-06-10T12:53:53;99262.13;;;7.39;100.00
48352;BME280;34163;49.314;6.752;2023-06-10T12:56:18;99260.50;;;7.35;100.00
48352;BME280;34163;49.314;6.752;2023-06-10T12:58:43;99256.97;;;7.36;100.00
48352;BME280;34163;49.314;6.752;2023-06-10T13:01:08;99255.22;;;7.35;100.00
48352;BME280;34163;49.314;6.752;2023-06-10T13:03:34;99264.81;;;7.38;100.00
48352;BME280;34163;49.314;6.752;2023-06-10T13:05:59;99262.78;;;7.44;100.00
48352;BME280;34163;49.314;6.752;2023-06-10T13:08:25;99252.41;;;7.40;100.00
48352;BME280;34163;49.314;6.752;2023-06-10T13:10:50;99244.56;;;7.38;100.00
48352;BME280;34163;49.314;6.752;2023-06-10T13:13:15;99254.31;;;7.36;100.00
48352;BME280;34163;49.314;6.752;2023-06-10T13:15:41;99249.84;;;7.38;100.00
48352;BME280;34163;49.314;6.752;2023-06-10T13:18:06;99244.44;;;7.41;100.00
48352;BME280;34163;49.314;6.752;2023-06-10T13:20:31;99249.00;;;7.38;100.00
48352;BME280;34163;49.314;6.752;2023-06-10T13:22:57;99242.81;;;7.39;100.00
48352;BME280;34163;49.314;6.752;2023-06-10T13:25:22;99238.38;;;7.39;100.00
48352;BME280;34163;49.314;6.752;2023-06-10T13:27:48;99235.88;;;7.36;100.00
48352;BME280;34163;49.314;6.752;2023-06-10T13:30:13;99238.28;;;7.42;100.00
48352;BME280;34163;49.314;6.752;2023-06-10T13:32:38;99239.13;;;7.43;100.00
48352;BME280;34163;49.314;6.752;2023-06-10T13:35:04;99231.22;;;7.43;100.00
48352;BME280;34163;49.314;6.752;2023-06-10T13:37:29;99225.28;;;7.38;100.00
48352;BME280;34163;49.314;6.752;2023-06-10T13:39:55;99228.75;;;7.38;100.00
48352;BME280;34163;49.314;6.752;2023-06-10T13:42:20;99223.13;;;7.48;100.00
48352;BME280;34163;49.314;6.752;2023-06-10T13:44:49;99228.28;;;7.51;100.00
48352;BME280;34163;49.314;6.752;2023-06-10T13:47:14;99233.72;;;7.46;100.00
48352;BME280;34163;49.314;6.752;2023-06-10T13:49:39;99223.47;;;7.38;100.00
48352;BME280;34163;49.314;6.752;2023-06-10T13:52:05;99226.78;;;7.43;100.00
48352;BME280;34163;49.314;6.752;2023-06-10T13:54:31;99228.53;;;7.44;100.00
48352;BME280;34163;49.314;6.752;2023-06-10T13:56:56;99221.16;;;7.53;100.00
48352;BME280;34163;49.314;6.752;2023-06-10T13:59:21;99210.97;;;7.43;100.00
48352;BME280;34163;49.314;6.752;2023-06-10T14:01:47;99221.53;;;7.43;100.00
48352;BME280;34163;49.314;6.752;2023-06-10T14:04:12;99217.84;;;7.48;100.00
48352;BME280;34163;49.314;6.752;2023-06-10T14:06:38;99216.88;;;7.50;100.00
48352;BME280;34163;49.314;6.752;2023-06-10T14:09:03;99220.66;;;7.43;100.00
48352;BME280;34163;49.314;6.752;2023-06-10T14:11:28;99215.22;;;7.48;100.00
48352;BME280;34163;49.314;6.752;2023-06-10T14:13:54;99217.75;;;7.51;100.00
48352;BME280;34163;49.314;6.752;2023-06-10T14:16:21;99218.53;;;7.53;100.00
48352;BME280;34163;49.314;6.752;2023-06-10T14:18:46;99212.41;;;7.52;100.00
48352;BME280;34163;49.314;6.752;2023-06-10T14:21:12;99211.84;;;7.44;100.00
48352;BME280;34163;49.314;6.752;2023-06-10T14:23:37;99207.56;;;7.41;100.00
48352;BME280;34163;49.314;6.752;2023-06-10T14:26:02;99209.88;;;7.49;100.00
48352;BME280;34163;49.314;6.752;2023-06-10T14:28:28;99217.19;;;7.42;100.00
48352;BME280;34163;49.314;6.752;2023-06-10T14:30:54;99215.50;;;7.40;100.00
48352;BME280;34163;49.314;6.752;2023-06-10T14:33:19;99211.06;;;7.42;100.00
48352;BME280;34163;49.314;6.752;2023-06-10T14:35:44;99202.28;;;7.41;100.00
48352;BME280;34163;49.314;6.752;2023-06-10T14:38:09;99199.75;;;7.38;100.00
48352;BME280;34163;49.314;6.752;2023-06-10T14:40:35;99207.66;;;7.38;100.00
48352;BME280;34163;49.314;6.752;2023-06-10T14:43:00;99198.19;;;7.34;100.00
48352;BME280;34163;49.314;6.752;2023-06-10T14:45:26;99192.84;;;7.36;100.00
48352;BME280;34163;49.314;6.752;2023-06-10T14:47:51;99187.59;;;7.36;100.00
48352;BME280;34163;49.314;6.752;2023-06-10T14:50:17;99188.19;;;7.42;100.00
48352;BME280;34163;49.314;6.752;2023-06-10T14:52:42;99193.47;;;7.42;100.00
48352;BME280;34163;49.314;6.752;2023-06-10T14:55:07;99197.69;;;7.46;100.00
48352;BME280;34163;49.314;6.752;2023-06-10T14:57:32;99195.16;;;7.43;100.00
48352;BME280;34163;49.314;6.752;2023-06-10T14:59:58;99187.25;;;7.43;100.00
48352;BME280;34163;49.314;6.752;2023-06-10T15:02:23;99184.78;;;7.40;100.00
48352;BME280;34163;49.314;6.752;2023-06-10T15:04:48;99185.56;;;7.42;100.00
48352;BME280;34163;49.314;6.752;2023-06-10T15:07:13;99186.53;;;7.40;100.00
48352;BME280;34163;49.314;6.752;2023-06-10T15:09:40;99180.84;;;7.51;100.00
48352;BME280;34163;49.314;6.752;2023-06-10T15:12:06;99172.38;;;7.42;100.00
48352;BME280;34163;49.314;6.752;2023-06-10T15:14:31;99174.88;;;7.45;100.00
48352;BME280;34163;49.314;6.752;2023-06-10T15:16:56;99166.09;;;7.45;100.00
48352;BME280;34163;49.314;6.752;2023-06-10T15:19:24;99166.97;;;7.45;100.00
48352;BME280;34163;49.314;6.752;2023-06-10T15:21:49;99168.75;;;7.45;100.00
48352;BME280;34163;49.314;6.752;2023-06-10T15:24:14;99176.53;;;7.48;100.00
48352;BME280;34163;49.314;6.752;2023-06-10T15:26:39;99170.41;;;7.48;100.00
48352;BME280;34163;49.314;6.752;2023-06-10T15:29:05;99168.25;;;7.57;100.00
48352;BME280;34163;49.314;6.752;2023-06-10T15:31:31;99169.38;;;7.52;100.00
48352;BME280;34163;49.314;6.752;2023-06-10T15:33:57;99164.28;;;7.47;100.00
48352;BME280;34163;49.314;6.752;2023-06-10T15:36:22;99166.88;;;7.49;100.00
48352;BME280;34163;49.314;6.752;2023-06-10T15:38:47;99160.84;;;7.45;100.00
48352;BME280;34163;49.314;6.752;2023-06-10T15:41:13;99160.78;;;7.46;100.00
48352;BME280;34163;49.314;6.752;2023-06-10T15:43:38;99161.59;;;7.49;100.00
48352;BME280;34163;49.314;6.752;2023-06-10T15:46:03;99150.03;;;7.51;100.00
48352;BME280;34163;49.314;6.752;2023-06-10T15:48:32;99161.72;;;7.45;100.00
48352;BME280;34163;49.314;6.752;2023-06-10T15:50:57;99164.03;;;7.53;100.00
48352;BME280;34163;49.314;6.752;2023-06-10T15:53:22;99156.19;;;7.52;100.00
48352;BME280;34163;49.314;6.752;2023-06-10T15:55:47;99161.59;;;7.49;100.00
48352;BME280;34163;49.314;6.752;2023-06-10T15:58:12;99160.78;;;7.46;100.00
48352;BME280;34163;49.314;6.752;2023-06-10T16:00:38;99159.88;;;7.48;100.00
48352;BME280;34163;49.314;6.752;2023-06-10T16:03:03;99152.88;;;7.46;100.00
48352;BME280;34163;49.314;6.752;2023-06-10T16:05:29;99160.91;;;7.43;100.00
48352;BME280;34163;49.314;6.752;2023-06-10T16:07:54;99160.03;;;7.43;100.00
48352;BME280;34163;49.314;6.752;2023-06-10T16:10:19;99159.94;;;7.46;100.00
48352;BME280;34163;49.314;6.752;2023-06-10T16:12:50;99160.84;;;7.45;100.00
48352;BME280;34163;49.314;6.752;2023-06-10T16:15:15;99153.75;;;7.47;100.00
48352;BME280;34163;49.314;6.752;2023-06-10T16:17:41;99147.59;;;7.46;100.00
48352;BME280;34163;49.314;6.752;2023-06-10T16:20:06;99140.50;;;7.49;100.00
48352;BME280;34163;49.314;6.752;2023-06-10T16:22:32;99151.84;;;7.51;100.00
48352;BME280;34163;49.314;6.752;2023-06-10T16:24:57;99149.19;;;7.51;100.00
48352;BME280;34163;49.314;6.752;2023-06-10T16:27:22;99147.34;;;7.53;100.00
48352;BME280;34163;49.314;6.752;2023-06-10T16:29:49;99143.94;;;7.51;100.00
48352;BME280;34163;49.314;6.752;2023-06-10T16:32:14;99158.91;;;7.50;100.00
48352;BME280;34163;49.314;6.752;2023-06-10T16:34:40;99151.84;;;7.51;100.00
48352;BME280;34163;49.314;6.752;2023-06-10T16:37:05;99150.16;;;7.48;100.00
48352;BME280;34163;49.314;6.752;2023-06-10T16:39:30;99155.50;;;7.46;100.00
48352;BME280;34163;49.314;6.752;2023-06-10T16:41:56;99149.25;;;7.49;100.00
48352;BME280;34163;49.314;6.752;2023-06-10T16:44:21;99146.56;;;7.51;100.00
48352;BME280;34163;49.314;6.752;2023-06-10T16:46:46;99149.31;;;7.48;100.00
48352;BME280;34163;49.314;6.752;2023-06-10T16:49:11;99149.38;;;7.46;100.00
48352;BME280;34163;49.314;6.752;2023-06-10T16:51:37;99147.72;;;7.43;100.00
48352;BME280;34163;49.314;6.752;2023-06-10T16:54:02;99144.22;;;7.43;100.00
48352;BME280;34163;49.314;6.752;2023-06-10T16:56:27;99152.88;;;7.46;100.00
48352;BME280;34163;49.314;6.752;2023-06-10T16:58:53;99148.53;;;7.45;100.00
48352;BME280;34163;49.314;6.752;2023-06-10T17:01:18;99153.75;;;7.47;100.00
48352;BME280;34163;49.314;6.752;2023-06-10T17:03:43;99146.88;;;7.43;100.00
48352;BME280;34163;49.314;6.752;2023-06-10T17:06:08;99151.28;;;7.42;100.00
48352;BME280;34163;49.314;6.752;2023-06-10T17:08:34;99152.91;;;7.45;100.00
48352;BME280;34163;49.314;6.752;2023-06-10T17:10:59;99148.41;;;7.49;100.00
48352;BME280;34163;49.314;6.752;2023-06-10T17:13:24;99155.56;;;7.45;100.00
48352;BME280;34163;49.314;6.752;2023-06-10T17:15:50;99159.06;;;7.45;100.00
48352;BME280;34163;49.314;6.752;2023-06-10T17:18:16;99173.22;;;7.43;100.00
48352;BME280;34163;49.314;6.752;2023-06-10T17:20:41;99165.38;;;7.41;100.00
48352;BME280;34163;49.314;6.752;2023-06-10T17:23:06;99165.31;;;7.43;100.00
48352;BME280;34163;49.314;6.752;2023-06-10T17:25:32;99167.28;;;7.38;100.00
48352;BME280;34163;49.314;6.752;2023-06-10T17:27:59;99166.44;;;7.37;100.00
48352;BME280;34163;49.314;6.752;2023-06-10T17:30:24;99167.34;;;7.36;100.00
48352;BME280;34163;49.314;6.752;2023-06-10T17:32:50;99166.31;;;7.40;100.00
48352;BME280;34163;49.314;6.752;2023-06-10T17:35:15;99170.75;;;7.38;100.00
48352;BME280;34163;49.314;6.752;2023-06-10T17:37:41;99171.66;;;7.39;100.00
48352;BME280;34163;49.314;6.752;2023-06-10T17:40:06;99177.75;;;7.39;100.00
48352;BME280;34163;49.314;6.752;2023-06-10T17:42:32;99182.06;;;7.42;100.00
48352;BME280;34163;49.314;6.752;2023-06-10T17:44:57;99178.50;;;7.43;100.00
48352;BME280;34163;49.314;6.752;2023-06-10T17:47:22;99178.38;;;7.46;100.00
48352;BME280;34163;49.314;6.752;2023-06-10T17:49:47;99181.13;;;7.43;100.00
48352;BME280;34163;49.314;6.752;2023-06-10T17:52:13;99188.19;;;7.42;100.00
48352;BME280;34163;49.314;6.752;2023-06-10T17:54:38;99191.84;;;7.38;100.00
48352;BME280;34163;49.314;6.752;2023-06-10T17:57:03;99189.16;;;7.40;100.00
48352;BME280;34163;49.314;6.752;2023-06-10T17:59:29;99189.22;;;7.38;100.00
48352;BME280;34163;49.314;6.752;2023-06-10T18:01:54;99189.28;;;7.37;100.00
48352;BME280;34163;49.314;6.752;2023-06-10T18:04:22;99188.31;;;7.39;100.00
48352;BME280;34163;49.314;6.752;2023-06-10T18:06:48;99193.59;;;7.39;100.00
48352;BME280;34163;49.314;6.752;2023-06-10T18:09:13;99198.84;;;7.39;100.00
48352;BME280;34163;49.314;6.752;2023-06-10T18:11:39;99200.81;;;7.34;100.00
48352;BME280;34163;49.314;6.752;2023-06-10T18:14:07;99199.81;;;7.37;100.00
48352;BME280;34163;49.314;6.752;2023-06-10T18:16:34;99202.41;;;7.38;100.00
48352;BME280;34163;49.314;6.752;2023-06-10T18:18:59;99195.31;;;7.40;100.00
48352;BME280;34163;49.314;6.752;2023-06-10T18:21:25;99200.63;;;7.39;100.00
48352;BME280;34163;49.314;6.752;2023-06-10T18:23:50;99200.59;;;7.40;100.00
48352;BME280;34163;49.314;6.752;2023-06-10T18:26:15;99193.69;;;7.36;100.00
48352;BME280;34163;49.314;6.752;2023-06-10T18:28:41;99201.59;;;7.36;100.00
48352;BME280;34163;49.314;6.752;2023-06-10T18:31:06;99202.50;;;7.35;100.00
48352;BME280;34163;49.314;6.752;2023-06-10T18:33:31;99200.69;;;7.37;100.00
48352;BME280;34163;49.314;6.752;2023-06-10T18:35:57;99205.16;;;7.35;100.00
48352;BME280;34163;49.314;6.752;2023-06-10T18:38:22;99203.34;;;7.37;100.00
48352;BME280;34163;49.314;6.752;2023-06-10T18:40:47;99201.53;;;7.38;100.00